createdAt,value
2019-06-01T00:00:10.629Z,12.2
2019-06-01T00:01:00.519Z,12.2
2019-06-01T00:02:01.920Z,12.2
2019-06-01T00:03:02.352Z,12.2
2019-06-01T00:04:03.783Z,12.2
2019-06-01T00:05:05.190Z,12.2
2019-06-01T00:06:06.580Z,12.2
2019-06-01T00:09:10.264Z,12.1
2019-06-01T00:10:11.662Z,12
2019-06-01T00:11:13.063Z,12.1
2019-06-01T00:14:16.139Z,12
2019-06-01T00:15:17.533Z,12
2019-06-01T00:16:18.932Z,12
2019-06-01T00:17:20.331Z,12
2019-06-01T00:18:21.754Z,12.1
2019-06-01T00:19:23.144Z,12
2019-06-01T00:20:24.546Z,12
2019-06-01T00:22:27.063Z,12
2019-06-01T00:23:27.849Z,11.9
2019-06-01T00:24:29.245Z,11.9
2019-06-01T00:28:34.052Z,11.9
2019-06-01T00:29:35.451Z,11.9
2019-06-01T00:30:36.851Z,12
2019-06-01T00:31:38.248Z,11.9
2019-06-01T00:32:40.891Z,11.9
2019-06-01T00:33:41.144Z,11.9
2019-06-01T00:34:41.639Z,11.9
2019-06-01T00:35:43.488Z,11.9
2019-06-01T00:36:43.589Z,11.8
2019-06-01T00:37:45.599Z,11.8
2019-06-01T00:38:45.901Z,11.8
2019-06-01T00:39:47.847Z,11.8
2019-06-01T00:40:48.248Z,11.8
2019-06-01T00:41:50.226Z,11.9
2019-06-01T00:43:52.380Z,11.8
2019-06-01T00:44:52.477Z,11.8
2019-06-01T00:45:53.171Z,11.8
2019-06-01T00:46:53.603Z,11.8
2019-06-01T00:47:54.999Z,11.7
2019-06-01T00:48:56.417Z,11.7
2019-06-01T00:49:57.824Z,11.7
2019-06-01T00:54:01.987Z,11.7
2019-06-01T00:55:03.381Z,11.8
2019-06-01T01:00:09.319Z,11.7
2019-06-01T01:01:10.712Z,11.7
2019-06-01T01:02:12.109Z,11.7
2019-06-01T01:03:13.511Z,11.6
2019-06-01T01:04:14.242Z,11.7
2019-06-01T01:05:15.657Z,11.7
2019-06-01T01:06:17.065Z,11.6
2019-06-01T01:09:20.749Z,11.7
2019-06-01T01:10:22.135Z,11.7
2019-06-01T01:11:23.539Z,11.6
2019-06-01T01:12:24.934Z,11.6
2019-06-01T01:13:26.331Z,11.6
2019-06-01T01:14:27.118Z,11.6
2019-06-01T01:15:28.508Z,11.5
2019-06-01T01:18:32.161Z,11.6
2019-06-01T01:19:33.581Z,11.6
2019-06-01T01:20:34.979Z,11.5
2019-06-01T01:21:36.377Z,11.5
2019-06-01T01:22:37.775Z,11.4
2019-06-01T01:24:39.694Z,11.4
2019-06-01T01:26:41.421Z,11.4
2019-06-01T01:27:42.818Z,11.4
2019-06-01T01:29:46.740Z,11.4
2019-06-01T01:31:47.069Z,11.4
2019-06-01T01:32:49.484Z,11.4
2019-06-01T01:33:49.340Z,11.4
2019-06-01T01:34:49.929Z,11.4
2019-06-01T01:36:52.693Z,11.4
2019-06-01T01:37:53.705Z,11.4
2019-06-01T01:39:54.557Z,11.4
2019-06-01T01:40:56.230Z,11.4
2019-06-01T01:41:56.649Z,11.4
2019-06-01T01:42:58.889Z,11.3
2019-06-01T01:43:59.362Z,11.4
2019-06-01T01:46:01.281Z,11.4
2019-06-01T01:47:02.786Z,11.3
2019-06-01T01:48:04.159Z,11.4
2019-06-01T01:49:05.564Z,11.4
2019-06-01T01:50:06.982Z,11.4
2019-06-01T01:51:08.379Z,11.3
2019-06-01T01:52:09.780Z,11.4
2019-06-01T01:53:11.171Z,11.4
2019-06-01T01:54:12.573Z,11.3
2019-06-01T01:56:14.662Z,11.3
2019-06-01T01:57:16.060Z,11.3
2019-06-01T01:58:17.460Z,11.3
2019-06-01T01:59:18.843Z,11.4
2019-06-01T02:00:20.275Z,11.4
2019-06-01T02:01:23.086Z,11.4
2019-06-01T02:02:22.720Z,11.3
2019-06-01T02:04:25.241Z,11.3
2019-06-01T02:05:26.032Z,11.3
2019-06-01T02:06:29.094Z,11.3
2019-06-01T02:07:28.831Z,11.3
2019-06-01T02:08:30.221Z,11.3
2019-06-01T02:09:31.629Z,11.3
2019-06-01T02:10:33.049Z,11.3
2019-06-01T02:11:34.451Z,11.3
2019-06-01T02:12:35.837Z,11.3
2019-06-01T02:13:37.240Z,11.3
2019-06-01T02:14:38.636Z,11.3
2019-06-01T02:15:39.433Z,11.2
2019-06-01T02:16:40.821Z,11.2
2019-06-01T02:17:42.212Z,11.2
2019-06-01T02:18:43.618Z,11.2
2019-06-01T02:19:45.009Z,11.2
2019-06-01T02:20:46.439Z,11.2
2019-06-01T02:21:47.389Z,11.2
2019-06-01T02:22:48.786Z,11.2
2019-06-01T02:23:49.718Z,11.2
2019-06-01T02:25:52.830Z,11.1
2019-06-01T02:26:53.148Z,11.1
2019-06-01T02:27:55.024Z,11.1
2019-06-01T02:29:57.153Z,11.1
2019-06-01T02:30:57.902Z,11.1
2019-06-01T02:31:59.044Z,11.1
2019-06-01T02:33:00.187Z,11.1
2019-06-01T02:34:01.411Z,11.1
2019-06-01T02:36:03.397Z,11.1
2019-06-01T02:42:08.363Z,11
2019-06-01T02:43:09.763Z,11
2019-06-01T02:44:11.163Z,11
2019-06-01T02:46:13.085Z,10.9
2019-06-01T02:47:14.477Z,11
2019-06-01T02:52:20.469Z,11
2019-06-01T02:53:21.823Z,11
2019-06-01T02:54:23.224Z,11
2019-06-01T02:56:25.117Z,11
2019-06-01T02:57:26.558Z,11
2019-06-01T02:58:27.952Z,11
2019-06-01T03:00:30.481Z,10.9
2019-06-01T03:01:31.903Z,10.9
2019-06-01T03:02:33.309Z,10.8
2019-06-01T03:03:34.695Z,10.9
2019-06-01T03:04:36.094Z,10.8
2019-06-01T03:05:37.486Z,10.8
2019-06-01T03:06:38.280Z,10.8
2019-06-01T03:07:39.680Z,10.8
2019-06-01T03:08:41.068Z,10.8
2019-06-01T03:09:42.482Z,10.9
2019-06-01T03:10:43.866Z,10.9
2019-06-01T03:11:45.284Z,10.8
2019-06-01T03:12:46.692Z,10.9
2019-06-01T03:13:48.085Z,10.9
2019-06-01T03:14:49.473Z,10.8
2019-06-01T03:15:50.872Z,10.8
2019-06-01T03:16:51.662Z,10.8
2019-06-01T03:18:54.410Z,10.7
2019-06-01T03:19:55.808Z,10.7
2019-06-01T03:20:56.734Z,10.7
2019-06-01T03:21:58.056Z,10.7
2019-06-01T03:22:59.615Z,10.7
2019-06-01T03:23:59.779Z,10.7
2019-06-01T03:25:02.023Z,10.7
2019-06-01T03:26:02.175Z,10.7
2019-06-01T03:28:04.318Z,10.7
2019-06-01T03:29:07.209Z,10.7
2019-06-01T03:30:09.075Z,10.7
2019-06-01T03:31:08.719Z,10.7
2019-06-01T03:32:28.822Z,10.7
2019-06-01T03:34:11.177Z,10.7
2019-06-01T03:35:10.570Z,10.7
2019-06-01T03:36:13.076Z,10.7
2019-06-01T03:38:13.998Z,10.7
2019-06-01T03:39:15.385Z,10.7
2019-06-01T03:46:23.664Z,10.7
2019-06-01T03:47:24.496Z,10.7
2019-06-01T03:48:25.894Z,10.7
2019-06-01T03:53:31.923Z,10.8
2019-06-01T03:54:33.339Z,10.8
2019-06-01T03:55:34.748Z,10.8
2019-06-01T03:57:36.644Z,10.7
2019-06-01T03:58:38.075Z,10.8
2019-06-01T03:59:39.494Z,10.7
2019-06-01T04:00:40.869Z,10.7
2019-06-01T04:01:42.267Z,10.8
2019-06-01T04:06:48.196Z,10.8
2019-06-01T04:07:48.953Z,10.8
2019-06-01T04:08:50.388Z,10.8
2019-06-01T04:09:51.783Z,10.9
2019-06-01T04:10:53.191Z,10.8
2019-06-01T04:11:54.568Z,10.9
2019-06-01T04:12:55.974Z,10.9
2019-06-01T04:13:56.504Z,10.9
2019-06-01T04:14:57.896Z,10.9
2019-06-01T04:15:58.517Z,10.9
2019-06-01T04:16:59.878Z,10.9
2019-06-01T04:19:01.684Z,10.8
2019-06-01T04:20:02.137Z,10.8
2019-06-01T04:22:04.407Z,10.8
2019-06-01T04:23:06.152Z,10.8
2019-06-01T04:24:06.432Z,10.9
2019-06-01T04:25:08.278Z,10.9
2019-06-01T04:26:08.743Z,10.8
2019-06-01T04:27:10.190Z,10.9
2019-06-01T04:28:10.289Z,10.8
2019-06-01T04:30:11.822Z,10.9
2019-06-01T04:31:13.204Z,10.9
2019-06-01T04:33:15.737Z,10.9
2019-06-01T04:34:17.168Z,10.9
2019-06-01T04:35:18.072Z,10.9
2019-06-01T04:36:19.475Z,10.9
2019-06-01T04:37:20.862Z,10.9
2019-06-01T04:39:22.784Z,11
2019-06-01T04:41:25.318Z,11
2019-06-01T04:42:26.705Z,11
2019-06-01T04:44:29.264Z,11.1
2019-06-01T04:45:30.661Z,11
2019-06-01T04:46:32.055Z,11
2019-06-01T04:49:35.343Z,11
2019-06-01T04:50:36.743Z,11.1
2019-06-01T04:51:38.139Z,11.1
2019-06-01T04:52:39.523Z,11.1
2019-06-01T04:53:40.947Z,11.1
2019-06-01T04:54:42.341Z,11.2
2019-06-01T04:55:43.740Z,11.2
2019-06-01T04:56:45.135Z,11.2
2019-06-01T04:57:46.525Z,11.3
2019-06-01T04:58:47.334Z,11.3
2019-06-01T04:59:48.730Z,11.3
2019-06-01T05:00:50.130Z,11.3
2019-06-01T05:01:51.520Z,11.4
2019-06-01T05:03:53.755Z,11.4
2019-06-01T05:04:55.153Z,11.5
2019-06-01T05:08:59.600Z,11.6
2019-06-01T05:10:00.274Z,11.6
2019-06-01T05:11:05.034Z,11.6
2019-06-01T05:12:02.577Z,11.7
2019-06-01T05:13:05.225Z,11.7
2019-06-01T05:15:05.817Z,11.7
2019-06-01T05:17:07.870Z,11.8
2019-06-01T05:18:10.027Z,11.9
2019-06-01T05:20:10.801Z,11.9
2019-06-01T05:21:12.799Z,12
2019-06-01T05:22:12.559Z,12.1
2019-06-01T05:23:12.984Z,12.3
2019-06-01T05:24:14.762Z,12.4
2019-06-01T05:25:15.296Z,12.5
2019-06-01T05:26:17.032Z,12.7
2019-06-01T05:27:17.316Z,12.9
2019-06-01T05:28:17.777Z,13.1
2019-06-01T05:29:18.541Z,13.2
2019-06-01T05:31:25.031Z,13.7
2019-06-01T05:32:21.671Z,13.9
2019-06-01T05:35:25.455Z,14.7
2019-06-01T05:36:26.849Z,14.8
2019-06-01T05:37:28.251Z,14.9
2019-06-01T05:38:29.648Z,15.1
2019-06-01T05:39:30.150Z,15.2
2019-06-01T05:40:31.579Z,15.3
2019-06-01T05:45:37.528Z,16.3
2019-06-01T05:49:41.700Z,17
2019-06-01T05:50:43.120Z,17.1
2019-06-01T05:51:44.513Z,17.3
2019-06-01T05:52:45.911Z,17.4
2019-06-01T05:53:47.309Z,17.6
2019-06-01T05:54:48.748Z,17.7
2019-06-01T05:55:50.124Z,17.8
2019-06-01T05:56:51.517Z,17.9
2019-06-01T05:57:52.917Z,18.1
2019-06-01T05:58:54.321Z,18.3
2019-06-01T05:59:55.104Z,18.5
2019-06-01T06:00:56.500Z,18.6
2019-06-01T06:06:02.440Z,18.5
2019-06-01T06:07:03.835Z,18.7
2019-06-01T06:08:05.247Z,18.7
2019-06-01T06:10:07.647Z,18.9
2019-06-01T06:11:08.860Z,19.1
2019-06-01T06:12:11.224Z,19
2019-06-01T06:13:11.337Z,19.1
2019-06-01T06:14:13.334Z,19.3
2019-06-01T06:15:14.009Z,19.4
2019-06-01T06:16:15.715Z,19.5
2019-06-01T06:17:17.483Z,19.5
2019-06-01T06:18:17.756Z,19.5
2019-06-01T06:21:20.388Z,19.5
2019-06-01T06:22:22.400Z,19.4
2019-06-01T06:23:22.836Z,19.5
2019-06-01T06:24:24.213Z,19.5
2019-06-01T06:26:26.276Z,19.6
2019-06-01T06:30:30.433Z,19.8
2019-06-01T06:31:31.833Z,19.9
2019-06-01T06:34:35.359Z,20.3
2019-06-01T06:36:37.912Z,20.6
2019-06-01T06:37:42.225Z,20.8
2019-06-01T06:41:44.209Z,21.1
2019-06-01T06:46:50.156Z,21.8
2019-06-01T06:47:51.556Z,21.9
2019-06-01T06:48:52.947Z,21.9
2019-06-01T06:49:54.343Z,22
2019-06-01T06:50:55.120Z,22.2
2019-06-01T06:53:58.790Z,22.1
2019-06-01T06:55:00.217Z,22.2
2019-06-01T06:56:01.617Z,22.2
2019-06-01T06:57:03.052Z,22.3
2019-06-01T06:58:04.451Z,22.3
2019-06-01T06:59:05.849Z,22.3
2019-06-01T07:00:06.893Z,22.3
2019-06-01T07:02:08.821Z,22.3
2019-06-01T07:03:10.215Z,22.2
2019-06-01T07:05:12.087Z,22.3
2019-06-01T07:06:13.480Z,22.3
2019-06-01T07:07:14.536Z,22.5
2019-06-01T07:08:15.924Z,22.8
2019-06-01T07:09:17.832Z,23.2
2019-06-01T07:10:18.075Z,23.3
2019-06-01T07:11:19.101Z,23.3
2019-06-01T07:15:23.466Z,23.4
2019-06-01T07:16:23.917Z,23.5
2019-06-01T07:17:25.630Z,23.7
2019-06-01T07:18:25.951Z,23.7
2019-06-01T07:19:27.885Z,23.9
2019-06-01T07:20:28.341Z,23.9
2019-06-01T07:22:30.260Z,23.8
2019-06-01T07:23:32.134Z,23.9
2019-06-01T07:25:33.743Z,24
2019-06-01T07:26:35.146Z,23.9
2019-06-01T07:27:36.554Z,23.5
2019-06-01T07:28:37.960Z,23.8
2019-06-01T07:29:38.753Z,24.1
2019-06-01T07:31:41.048Z,24.4
2019-06-01T07:32:42.445Z,24.5
2019-06-01T07:34:44.963Z,24.6
2019-06-01T07:35:46.363Z,24.3
2019-06-01T07:37:51.890Z,24.2
2019-06-01T07:38:50.086Z,24.3
2019-06-01T07:39:51.512Z,24.5
2019-06-01T07:40:52.179Z,24.6
2019-06-01T07:42:54.080Z,24.3
2019-06-01T07:43:55.489Z,24.3
2019-06-01T07:44:56.886Z,24.1
2019-06-01T07:45:58.431Z,24.6
2019-06-01T07:46:59.429Z,24.9
2019-06-01T07:48:00.796Z,24.8
2019-06-01T07:49:02.199Z,24.8
2019-06-01T07:50:03.600Z,24.7
2019-06-01T07:51:05.002Z,24.5
2019-06-01T07:53:07.566Z,25
2019-06-01T07:56:11.238Z,24.7
2019-06-01T07:57:12.666Z,24.7
2019-06-01T07:58:14.098Z,24.8
2019-06-01T08:01:16.794Z,25
2019-06-01T08:02:17.354Z,25
2019-06-01T08:03:18.796Z,24.9
2019-06-01T08:04:20.983Z,24.9
2019-06-01T08:05:23.213Z,25.1
2019-06-01T08:06:22.359Z,25.1
2019-06-01T08:10:27.756Z,25
2019-06-01T08:12:29.641Z,25
2019-06-01T08:13:32.057Z,25.3
2019-06-01T08:14:30.573Z,25.4
2019-06-01T08:15:31.830Z,25.6
2019-06-01T08:16:35.642Z,25.4
2019-06-01T08:17:33.014Z,25.2
2019-06-01T08:18:34.399Z,25
2019-06-01T08:22:38.574Z,25.5
2019-06-01T08:23:39.968Z,25.6
2019-06-01T08:25:42.490Z,25.6
2019-06-01T08:26:43.882Z,25.6
2019-06-01T08:28:46.584Z,25.6
2019-06-01T08:29:47.982Z,25.2
2019-06-01T08:30:49.378Z,25.4
2019-06-01T08:31:55.549Z,25.5
2019-06-01T08:32:51.678Z,25.4
2019-06-01T08:33:53.080Z,25.4
2019-06-01T08:35:07.655Z,25.4
2019-06-01T08:35:55.824Z,25.5
2019-06-01T08:37:58.368Z,25.6
2019-06-01T08:38:59.761Z,25.5
2019-06-01T08:40:01.162Z,25.7
2019-06-01T08:42:02.889Z,25.9
2019-06-01T08:45:05.932Z,26.2
2019-06-01T08:53:14.629Z,25.9
2019-06-01T08:54:15.226Z,25.8
2019-06-01T08:57:19.234Z,25.7
2019-06-01T08:58:20.610Z,25.6
2019-06-01T08:59:21.277Z,25.8
2019-06-01T09:00:22.669Z,25.6
2019-06-01T09:01:24.489Z,25.6
2019-06-01T09:02:24.719Z,25.3
2019-06-01T09:03:25.815Z,25.2
2019-06-01T09:05:28.743Z,25.4
2019-06-01T09:06:29.040Z,25.4
2019-06-01T09:07:28.980Z,25.5
2019-06-01T09:08:29.195Z,25.5
2019-06-01T09:13:35.356Z,25.5
2019-06-01T09:14:35.514Z,25.5
2019-06-01T09:21:42.812Z,25.4
2019-06-01T09:22:47.893Z,25.3
2019-06-01T09:23:45.409Z,25.2
2019-06-01T09:24:46.811Z,25.4
2019-06-01T09:25:47.608Z,25.4
2019-06-01T09:27:49.817Z,25.3
2019-06-01T09:29:52.377Z,25.3
2019-06-01T09:31:54.913Z,25.2
2019-06-01T09:32:56.311Z,25.2
2019-06-01T09:33:57.127Z,25.1
2019-06-01T09:34:58.558Z,25
2019-06-01T09:35:59.956Z,24.9
2019-06-01T09:37:01.355Z,24.9
2019-06-01T09:38:02.767Z,24.8
2019-06-01T09:40:05.320Z,24.7
2019-06-01T09:42:07.851Z,24.7
2019-06-01T09:44:09.849Z,24.6
2019-06-01T09:48:17.641Z,25
2019-06-01T09:49:15.971Z,24.9
2019-06-01T09:50:17.391Z,24.7
2019-06-01T09:53:21.038Z,24.9
2019-06-01T09:54:22.255Z,24.9
2019-06-01T09:55:23.412Z,24.9
2019-06-01T09:56:24.637Z,24.8
2019-06-01T09:57:26.075Z,24.9
2019-06-01T09:58:28.153Z,25
2019-06-01T09:59:27.758Z,25
2019-06-01T10:01:30.129Z,24.9
2019-06-01T10:02:31.969Z,24.8
2019-06-01T10:03:32.417Z,24.8
2019-06-01T10:04:32.344Z,24.4
2019-06-01T10:05:32.870Z,24.5
2019-06-01T10:06:34.642Z,24.6
2019-06-01T10:07:35.119Z,24.5
2019-06-01T10:08:36.195Z,24.6
2019-06-01T10:09:37.730Z,24.7
2019-06-01T10:10:38.049Z,24.6
2019-06-01T10:11:38.475Z,24.7
2019-06-01T10:12:39.884Z,24.8
2019-06-01T10:14:42.427Z,24.4
2019-06-01T10:15:43.047Z,24.4
2019-06-01T10:16:43.436Z,24.4
2019-06-01T10:17:44.837Z,24.2
2019-06-01T10:18:45.431Z,24.4
2019-06-01T10:19:46.865Z,24.4
2019-06-01T10:20:48.265Z,24.3
2019-06-01T10:21:49.669Z,24.2
2019-06-01T10:24:52.769Z,24.3
2019-06-01T10:30:59.858Z,24.5
2019-06-01T10:34:03.828Z,24.4
2019-06-01T10:35:04.697Z,24.2
2019-06-01T10:37:06.921Z,24.2
2019-06-01T10:38:08.325Z,24.3
2019-06-01T10:39:09.715Z,24.3
2019-06-01T10:40:11.147Z,24.3
2019-06-01T10:45:15.737Z,23.7
2019-06-01T10:47:18.348Z,23.8
2019-06-01T10:48:19.723Z,23.9
2019-06-01T10:49:21.109Z,23.8
2019-06-01T10:51:23.669Z,23.8
2019-06-01T10:52:25.062Z,23.8
2019-06-01T10:53:26.465Z,23.7
2019-06-01T10:56:28.726Z,24
2019-06-01T10:57:29.435Z,24
2019-06-01T10:59:32.198Z,23.7
2019-06-01T11:00:38.578Z,23.6
2019-06-01T11:01:34.580Z,23.6
2019-06-01T11:02:34.972Z,23.7
2019-06-01T11:03:36.681Z,23.7
2019-06-01T11:06:47.874Z,23.9
2019-06-01T11:07:43.346Z,23.8
2019-06-01T11:08:41.037Z,23.9
2019-06-01T11:09:41.483Z,23.9
2019-06-01T11:10:43.213Z,23.9
2019-06-01T11:15:47.524Z,23.8
2019-06-01T11:17:49.813Z,23.5
2019-06-01T11:18:51.229Z,23.5
2019-06-01T11:21:54.068Z,23.5
2019-06-01T11:23:56.608Z,23.3
2019-06-01T11:24:58.033Z,23.3
2019-06-01T11:25:58.793Z,23.4
2019-06-01T11:27:00.218Z,23.5
2019-06-01T11:31:05.127Z,23.3
2019-06-01T11:32:06.545Z,23.4
2019-06-01T11:33:07.945Z,23.3
2019-06-01T11:36:10.607Z,23.2
2019-06-01T11:37:15.129Z,23.2
2019-06-01T11:39:14.064Z,23.2
2019-06-01T11:43:18.873Z,22.8
2019-06-01T11:46:22.480Z,22.8
2019-06-01T11:49:26.162Z,23
2019-06-01T11:50:27.548Z,23
2019-06-01T11:52:30.457Z,22.9
2019-06-01T11:53:31.145Z,22.8
2019-06-01T11:56:35.153Z,22.9
2019-06-01T11:57:35.398Z,22.9
2019-06-01T11:58:37.158Z,22.8
2019-06-01T11:59:37.461Z,22.9
2019-06-01T12:02:40.049Z,23
2019-06-01T12:05:44.096Z,22.8
2019-06-01T12:06:44.119Z,22.6
2019-06-01T12:07:46.054Z,22.7
2019-06-01T12:11:49.663Z,22.8
2019-06-01T12:12:54.668Z,22.8
2019-06-01T12:13:51.988Z,22.8
2019-06-01T12:15:54.519Z,22.7
2019-06-01T12:16:55.282Z,22.8
2019-06-01T12:17:56.704Z,22.9
2019-06-01T12:18:58.156Z,23
2019-06-01T12:24:04.113Z,22.9
2019-06-01T12:25:04.945Z,22.9
2019-06-01T12:26:06.329Z,23
2019-06-01T12:27:07.340Z,22.9
2019-06-01T12:29:09.893Z,23
2019-06-01T12:33:14.717Z,23
2019-06-01T12:34:16.134Z,22.8
2019-06-01T12:35:17.519Z,22.8
2019-06-01T12:36:18.377Z,22.9
2019-06-01T12:37:34.487Z,22.9
2019-06-01T12:38:20.159Z,22.9
2019-06-01T12:39:21.543Z,22.9
2019-06-01T12:43:26.362Z,23.1
2019-06-01T12:44:27.758Z,23
2019-06-01T12:45:29.155Z,23.1
2019-06-01T12:47:31.140Z,22.9
2019-06-01T12:50:35.160Z,23
2019-06-01T12:51:36.585Z,23
2019-06-01T12:52:37.645Z,23
2019-06-01T12:53:38.429Z,23
2019-06-01T12:54:40.362Z,22.8
2019-06-01T12:55:40.759Z,22.9
2019-06-01T12:59:45.129Z,22.8
2019-06-01T13:02:56.133Z,22.8
2019-06-01T13:03:49.924Z,22.8
2019-06-01T13:04:51.330Z,22.8
2019-06-01T13:08:01.636Z,22.8
2019-06-01T13:08:55.284Z,22.8
2019-06-01T13:09:56.683Z,22.9
2019-06-01T13:10:58.072Z,22.9
2019-06-01T13:11:59.474Z,22.8
2019-06-01T13:15:03.159Z,22.8
2019-06-01T13:16:04.561Z,22.8
2019-06-01T13:17:07.676Z,22.7
2019-06-01T13:21:10.031Z,22.7
2019-06-01T13:24:13.341Z,22.7
2019-06-01T13:25:14.762Z,22.7
2019-06-01T13:26:16.154Z,22.7
2019-06-01T13:27:17.556Z,22.7
2019-06-01T13:28:18.321Z,22.8
2019-06-01T13:29:19.468Z,22.8
2019-06-01T13:30:20.892Z,22.8
2019-06-01T13:31:21.641Z,22.7
2019-06-01T13:32:23.069Z,22.8
2019-06-01T13:34:25.686Z,22.9
2019-06-01T13:35:26.273Z,22.9
2019-06-01T13:37:28.799Z,22.7
2019-06-01T13:38:29.414Z,22.7
2019-06-01T13:39:30.806Z,22.7
2019-06-01T13:40:32.218Z,22.7
2019-06-01T13:41:33.623Z,22.6
2019-06-01T13:42:35.019Z,22.7
2019-06-01T13:43:36.406Z,22.7
2019-06-01T13:44:37.734Z,22.7
2019-06-01T13:45:38.451Z,22.7
2019-06-01T13:46:39.199Z,22.7
2019-06-01T13:47:40.317Z,22.7
2019-06-01T13:48:41.098Z,22.7
2019-06-01T13:50:43.740Z,22.6
2019-06-01T13:54:48.302Z,22.7
2019-06-01T13:55:48.734Z,22.7
2019-06-01T13:56:50.922Z,22.8
2019-06-01T13:57:52.411Z,22.9
2019-06-01T13:59:54.709Z,22.9
2019-06-01T14:00:55.071Z,22.9
2019-06-01T14:01:56.487Z,22.9
2019-06-01T14:05:00.173Z,23
2019-06-01T14:06:04.273Z,22.9
2019-06-01T14:07:02.607Z,23
2019-06-01T14:08:04.009Z,23
2019-06-01T14:09:04.767Z,22.9
2019-06-01T14:11:07.437Z,22.9
2019-06-01T14:12:08.830Z,23
2019-06-01T14:13:10.219Z,23
2019-06-01T14:14:11.619Z,23
2019-06-01T14:19:16.928Z,23.1
2019-06-01T14:20:18.351Z,23.1
2019-06-01T14:21:19.754Z,23.1
2019-06-01T14:22:21.147Z,23.1
2019-06-01T14:23:22.543Z,23.2
2019-06-01T14:26:26.221Z,23.2
2019-06-01T14:27:27.616Z,23.1
2019-06-01T14:28:29.020Z,23.1
2019-06-01T14:29:29.794Z,23
2019-06-01T14:30:31.194Z,23
2019-06-01T14:31:31.878Z,23
2019-06-01T14:32:33.267Z,23
2019-06-01T14:33:34.633Z,23
2019-06-01T14:34:36.059Z,22.9
2019-06-01T14:36:38.603Z,23
2019-06-01T14:37:40.010Z,23
2019-06-01T14:38:46.789Z,22.9
2019-06-01T14:39:41.186Z,23
2019-06-01T14:40:41.806Z,23
2019-06-01T14:42:44.072Z,23
2019-06-01T14:43:46.802Z,23
2019-06-01T14:44:47.140Z,22.9
2019-06-01T14:45:47.371Z,22.9
2019-06-01T14:47:49.418Z,23
2019-06-01T14:48:51.547Z,23
2019-06-01T14:49:51.611Z,23.1
2019-06-01T14:50:51.817Z,23.1
2019-06-01T14:51:53.656Z,23.1
2019-06-01T14:52:54.082Z,23.1
2019-06-01T14:53:55.765Z,23.1
2019-06-01T14:54:56.182Z,23.1
2019-06-01T14:55:58.003Z,23.1
2019-06-01T14:56:58.409Z,23.1
2019-06-01T14:57:59.801Z,23.1
2019-06-01T14:59:02.112Z,23
2019-06-01T15:00:00.934Z,23
2019-06-01T15:01:02.367Z,23.1
2019-06-01T15:05:07.143Z,23.2
2019-06-01T15:06:08.567Z,23.2
2019-06-01T15:07:09.969Z,23.2
2019-06-01T15:08:11.363Z,23
2019-06-01T15:09:18.803Z,23
2019-06-01T15:10:13.715Z,23
2019-06-01T15:11:15.143Z,23.1
2019-06-01T15:16:21.075Z,23.1
2019-06-01T15:17:22.481Z,23.1
2019-06-01T15:18:23.872Z,23
2019-06-01T15:19:25.259Z,23.1
2019-06-01T15:20:25.589Z,23.1
2019-06-01T15:21:27.040Z,23.1
2019-06-01T15:22:28.423Z,23.1
2019-06-01T15:23:29.805Z,23.2
2019-06-01T15:24:31.211Z,23.2
2019-06-01T15:27:35.125Z,23.1
2019-06-01T15:30:38.149Z,23.2
2019-06-01T15:31:39.546Z,23.2
2019-06-01T15:32:40.958Z,23.3
2019-06-01T15:33:42.359Z,23.2
2019-06-01T15:34:43.756Z,23.2
2019-06-01T15:35:44.388Z,23.2
2019-06-01T15:37:46.659Z,23.2
2019-06-01T15:40:49.041Z,23.2
2019-06-01T15:45:55.336Z,23.4
2019-06-01T15:46:55.670Z,23.4
2019-06-01T15:47:56.134Z,23.3
2019-06-01T15:48:57.764Z,23.2
2019-06-01T15:49:58.193Z,23.3
2019-06-01T15:51:01.117Z,23.2
2019-06-01T15:53:01.343Z,23.2
2019-06-01T15:56:04.058Z,23.1
2019-06-01T15:57:05.457Z,23.2
2019-06-01T15:58:06.862Z,23.2
2019-06-01T15:59:08.264Z,23.2
2019-06-01T16:00:09.655Z,23.2
2019-06-01T16:01:10.430Z,23.1
2019-06-01T16:02:11.818Z,23.1
2019-06-01T16:05:15.496Z,23.2
2019-06-01T16:06:16.076Z,23.1
2019-06-01T16:08:18.640Z,23
2019-06-01T16:10:20.469Z,22.9
2019-06-01T16:11:20.995Z,22.9
2019-06-01T16:12:22.405Z,23
2019-06-01T16:13:23.832Z,22.9
2019-06-01T16:14:25.235Z,22.9
2019-06-01T16:16:27.767Z,22.9
2019-06-01T16:17:29.158Z,22.8
2019-06-01T16:18:30.584Z,22.8
2019-06-01T16:19:31.986Z,22.7
2019-06-01T16:20:32.756Z,22.8
2019-06-01T16:21:33.530Z,22.7
2019-06-01T16:23:49.107Z,22.7
2019-06-01T16:25:38.447Z,22.8
2019-06-01T16:31:44.147Z,22.7
2019-06-01T16:32:45.558Z,22.7
2019-06-01T16:34:48.112Z,22.7
2019-06-01T16:35:49.083Z,22.7
2019-06-01T16:36:49.985Z,22.7
2019-06-01T16:40:55.108Z,22.7
2019-06-01T16:41:55.791Z,22.6
2019-06-01T16:42:57.341Z,22.6
2019-06-01T16:43:59.511Z,22.6
2019-06-01T16:44:59.892Z,22.5
2019-06-01T16:46:02.063Z,22.5
2019-06-01T16:47:02.884Z,22.5
2019-06-01T16:48:03.710Z,22.5
2019-06-01T16:52:07.279Z,22.5
2019-06-01T16:53:08.671Z,22.5
2019-06-01T16:54:10.076Z,22.5
2019-06-01T16:55:11.472Z,22.5
2019-06-01T16:56:12.870Z,22.5
2019-06-01T17:02:19.488Z,22.3
2019-06-01T17:03:20.885Z,22.3
2019-06-01T17:08:26.834Z,22.3
2019-06-01T17:09:27.444Z,22.2
2019-06-01T17:10:28.842Z,22.2
2019-06-01T17:12:30.734Z,22.2
2019-06-01T17:13:32.158Z,22.2
2019-06-01T17:14:33.571Z,22.2
2019-06-01T17:15:34.962Z,22.2
2019-06-01T17:16:36.362Z,22.2
2019-06-01T17:17:37.752Z,22.1
2019-06-01T17:18:39.186Z,22.1
2019-06-01T17:19:40.572Z,22.1
2019-06-01T17:21:43.108Z,22.1
2019-06-01T17:24:46.352Z,22.1
2019-06-01T17:25:47.740Z,22.1
2019-06-01T17:26:49.140Z,22
2019-06-01T17:30:54.436Z,22
2019-06-01T17:36:54.668Z,21.9
2019-06-01T17:39:58.141Z,21.9
2019-06-01T17:41:00.232Z,21.9
2019-06-01T17:43:02.821Z,21.8
2019-06-01T17:46:05.116Z,21.8
2019-06-01T17:47:04.899Z,21.8
2019-06-01T17:49:06.226Z,21.7
2019-06-01T17:50:07.635Z,21.7
2019-06-01T17:51:08.593Z,21.7
2019-06-01T17:52:09.727Z,21.6
2019-06-01T17:53:10.165Z,21.6
2019-06-01T17:54:11.839Z,21.6
2019-06-01T17:57:13.886Z,21.6
2019-06-01T17:58:15.359Z,21.6
2019-06-01T17:59:16.731Z,21.6
2019-06-01T18:00:17.306Z,21.6
2019-06-01T18:01:18.705Z,21.6
2019-06-01T18:02:20.099Z,21.5
2019-06-01T18:03:21.501Z,21.5
2019-06-01T18:04:22.310Z,21.5
2019-06-01T18:05:23.735Z,21.5
2019-06-01T18:06:27.434Z,21.5
2019-06-01T18:10:29.292Z,21.4
2019-06-01T18:11:30.684Z,21.3
2019-06-01T18:13:32.395Z,21.3
2019-06-01T18:15:34.944Z,21.3
2019-06-01T18:17:37.186Z,21.3
2019-06-01T18:18:38.609Z,21.2
2019-06-01T18:19:39.996Z,21.2
2019-06-01T18:20:41.423Z,21.2
2019-06-01T18:21:42.813Z,21.2
2019-06-01T18:29:51.551Z,21
2019-06-01T18:30:52.948Z,21
2019-06-01T18:34:58.191Z,20.8
2019-06-01T18:35:58.875Z,20.8
2019-06-01T18:39:03.265Z,20.7
2019-06-01T18:43:06.145Z,20.7
2019-06-01T18:44:06.126Z,20.7
2019-06-01T18:45:07.645Z,20.6
2019-06-01T18:46:08.099Z,20.6
2019-06-01T18:48:10.189Z,20.5
2019-06-01T18:49:11.735Z,20.4
2019-06-01T18:50:14.688Z,20.4
2019-06-01T18:51:14.290Z,20.3
2019-06-01T18:59:15.394Z,20
2019-06-01T19:00:16.364Z,19.9
2019-06-01T19:08:34.902Z,19.8
2019-06-01T19:09:27.197Z,19.8
2019-06-01T19:10:28.153Z,19.8
2019-06-01T19:11:35.857Z,19.8
2019-06-01T19:12:30.622Z,19.7
2019-06-01T19:13:32.052Z,19.7
2019-06-01T19:14:33.454Z,19.7
2019-06-01T19:15:34.859Z,19.7
2019-06-01T19:16:36.265Z,19.7
2019-06-01T19:18:38.842Z,19.6
2019-06-01T19:21:41.866Z,19.4
2019-06-01T19:22:43.265Z,19.4
2019-06-01T19:23:44.715Z,19.4
2019-06-01T19:27:49.519Z,19.3
2019-06-01T19:30:52.549Z,19.2
2019-06-01T19:33:56.225Z,19.1
2019-06-01T19:35:58.806Z,19
2019-06-01T19:37:00.163Z,19
2019-06-01T19:38:00.998Z,18.9
2019-06-01T19:41:03.782Z,18.8
2019-06-01T19:42:05.203Z,18.8
2019-06-01T19:44:07.706Z,18.7
2019-06-01T19:46:09.758Z,18.6
2019-06-01T19:47:11.819Z,18.5
2019-06-01T19:48:12.382Z,18.5
2019-06-01T19:50:14.299Z,18.5
2019-06-01T19:51:15.059Z,18.5
2019-06-01T19:53:17.128Z,18.5
2019-06-01T19:55:19.833Z,18.4
2019-06-01T19:56:21.733Z,18.3
2019-06-01T19:57:22.414Z,18.3
2019-06-01T19:58:22.455Z,18.3
2019-06-01T20:01:24.650Z,18.2
2019-06-01T20:02:33.563Z,18.2
2019-06-01T20:03:26.782Z,18.2
2019-06-01T20:04:28.058Z,18.1
2019-06-01T20:05:28.431Z,18.1
2019-06-01T20:07:30.965Z,18
2019-06-01T20:09:32.701Z,18
2019-06-01T20:10:34.091Z,18
2019-06-01T20:18:43.112Z,17.9
2019-06-01T20:19:44.523Z,17.8
2019-06-01T20:21:47.169Z,17.8
2019-06-01T20:22:48.561Z,17.8
2019-06-01T20:23:50.007Z,17.7
2019-06-01T20:24:51.393Z,17.7
2019-06-01T20:25:52.811Z,17.6
2019-06-01T20:27:55.328Z,17.6
2019-06-01T20:28:56.742Z,17.5
2019-06-01T20:29:58.144Z,17.5
2019-06-01T20:30:59.550Z,17.5
2019-06-01T20:32:00.311Z,17.4
2019-06-01T20:33:01.764Z,17.4
2019-06-01T20:35:04.303Z,17.4
2019-06-01T20:36:05.687Z,17.3
2019-06-01T20:39:09.512Z,17.3
2019-06-01T20:40:10.195Z,17.2